createdAt,value
2022-12-18T00:02:15.058Z,82.80
2022-12-18T00:07:22.977Z,82.69
2022-12-18T00:12:30.105Z,82.53
2022-12-18T00:17:37.001Z,82.50
2022-12-18T00:22:45.834Z,82.77
2022-12-18T00:27:52.259Z,82.81
2022-12-18T00:32:59.121Z,82.60
2022-12-18T00:38:08.093Z,82.90
2022-12-18T00:43:16.539Z,82.84
2022-12-18T00:48:23.531Z,82.76
2022-12-18T00:53:31.849Z,82.67
2022-12-18T00:58:38.327Z,82.93
2022-12-18T01:03:46.426Z,83.02
2022-12-18T01:08:54.530Z,83.22
2022-12-18T01:14:01.960Z,83.55
2022-12-18T01:19:08.761Z,83.47
2022-12-18T01:24:16.922Z,82.90
2022-12-18T01:29:23.289Z,82.71
2022-12-18T01:34:29.809Z,82.88
2022-12-18T01:39:37.719Z,82.76
2022-12-18T01:45:08.384Z,82.76
2022-12-18T01:50:19.251Z,82.43
2022-12-18T01:55:32.301Z,82.64
2022-12-18T02:00:38.597Z,82.99
2022-12-18T02:05:53.612Z,82.76
2022-12-18T02:11:10.899Z,82.53
2022-12-18T02:16:27.274Z,82.49
2022-12-18T02:21:48.893Z,82.28
2022-12-18T02:27:02.969Z,82.45
2022-12-18T02:32:16.580Z,82.61
2022-12-18T02:37:24.655Z,82.63
2022-12-18T02:42:35.202Z,82.39
2022-12-18T02:47:48.811Z,82.42
2022-12-18T02:53:17.218Z,82.40
2022-12-18T02:58:35.439Z,82.88
2022-12-18T03:03:54.614Z,82.40
2022-12-18T03:09:06.382Z,82.32
2022-12-18T03:14:18.832Z,82.52
2022-12-18T03:19:32.163Z,82.19
2022-12-18T03:24:40.881Z,81.94
2022-12-18T03:29:54.263Z,81.54
2022-12-18T03:35:08.466Z,81.31
2022-12-18T03:40:17.350Z,81.37
2022-12-18T03:45:34.440Z,81.49
2022-12-18T03:50:50.038Z,81.31
2022-12-18T03:56:02.033Z,81.55
2022-12-18T04:01:18.040Z,81.76
2022-12-18T04:06:25.592Z,80.87
2022-12-18T04:11:32.465Z,79.39
2022-12-18T04:16:42.457Z,77.48
2022-12-18T04:21:53.078Z,77.65
2022-12-18T04:26:59.725Z,77.91
2022-12-18T04:32:13.479Z,77.48
2022-12-18T04:37:22.777Z,77.87
2022-12-18T04:42:30.698Z,77.82
2022-12-18T04:47:38.499Z,76.41
2022-12-18T04:52:44.784Z,77.26
2022-12-18T04:57:53.385Z,78.21
2022-12-18T05:03:03.327Z,77.58
2022-12-18T05:08:10.236Z,78.25
2022-12-18T05:13:17.303Z,78.77
2022-12-18T05:18:25.521Z,78.50
2022-12-18T05:23:31.918Z,78.31
2022-12-18T05:28:39.397Z,79.05
2022-12-18T05:33:47.293Z,80.24
2022-12-18T05:38:54.110Z,80.84
2022-12-18T05:44:01.869Z,81.01
2022-12-18T05:49:09.564Z,81.25
2022-12-18T05:54:15.931Z,81.72
2022-12-18T05:59:22.239Z,81.57
2022-12-18T06:04:30.626Z,81.99
2022-12-18T06:09:37.240Z,82.22
2022-12-18T06:14:43.762Z,82.59
2022-12-18T06:19:51.801Z,83.17
2022-12-18T06:24:58.322Z,83.90
2022-12-18T06:30:04.971Z,84.17
2022-12-18T06:35:13.321Z,84.14
2022-12-18T06:40:20.010Z,84.26
2022-12-18T06:45:26.668Z,84.44
2022-12-18T06:50:34.899Z,84.75
2022-12-18T06:55:41.331Z,84.35
2022-12-18T07:00:48.053Z,84.56
2022-12-18T07:05:55.792Z,85.41
2022-12-18T07:11:02.103Z,85.03
2022-12-18T07:16:17.149Z,85.03
2022-12-18T07:21:29.056Z,85.05
2022-12-18T07:26:35.824Z,85.18
2022-12-18T07:31:42.546Z,84.94
2022-12-18T07:36:50.513Z,85.09
2022-12-18T07:42:14.478Z,85.12
2022-12-18T07:47:20.994Z,85.15
2022-12-18T07:52:28.966Z,84.67
2022-12-18T07:57:50.540Z,84.81
2022-12-18T08:02:57.992Z,84.64
2022-12-18T08:08:06.145Z,84.61
2022-12-18T08:13:12.678Z,84.40
2022-12-18T08:18:19.164Z,84.71
2022-12-18T08:23:39.287Z,84.90
2022-12-18T08:28:49.087Z,84.62
2022-12-18T08:33:57.236Z,84.66
2022-12-18T08:39:05.198Z,84.20
2022-12-18T08:44:29.433Z,84.29
2022-12-18T08:49:36.469Z,84.01
2022-12-18T08:54:44.351Z,83.89
2022-12-18T08:59:50.951Z,83.44
2022-12-18T09:04:57.908Z,83.65
2022-12-18T09:10:07.110Z,83.34
2022-12-18T09:15:14.234Z,83.50
2022-12-18T09:20:20.647Z,83.44
2022-12-18T09:25:33.048Z,83.48
2022-12-18T09:30:41.639Z,83.35
2022-12-18T09:35:48.722Z,83.51
2022-12-18T09:41:01.393Z,83.39
2022-12-18T09:46:13.722Z,83.27
2022-12-18T09:51:27.176Z,83.22
2022-12-18T09:56:40.476Z,82.92
2022-12-18T10:01:47.506Z,83.08
2022-12-18T10:07:08.905Z,82.97
2022-12-18T10:12:26.532Z,82.85
2022-12-18T10:17:45.818Z,82.83
2022-12-18T10:23:04.188Z,82.84
2022-12-18T10:28:16.859Z,82.79
2022-12-18T10:33:26.339Z,82.76
2022-12-18T10:38:34.614Z,82.80
2022-12-18T10:43:43.366Z,82.54
2022-12-18T10:48:57.891Z,82.57
2022-12-18T10:54:09.508Z,82.53
2022-12-18T10:59:20.421Z,82.78
2022-12-18T11:04:29.798Z,82.64
2022-12-18T11:09:38.929Z,82.37
2022-12-18T11:14:51.472Z,81.93
2022-12-18T11:19:59.500Z,82.68
2022-12-18T11:30:40.093Z,82.67
2022-12-18T11:35:52.813Z,82.52
2022-12-18T11:41:06.196Z,82.57
2022-12-18T11:46:20.308Z,82.33
2022-12-18T11:51:37.516Z,82.65
2022-12-18T11:56:50.497Z,82.04
2022-12-18T12:02:06.453Z,82.08
2022-12-18T12:07:32.213Z,82.28
2022-12-18T12:12:56.270Z,82.30
2022-12-18T12:18:16.779Z,83.06
2022-12-18T12:23:36.924Z,83.12
2022-12-18T12:29:24.150Z,82.41
2022-12-18T12:34:41.941Z,82.40
2022-12-18T12:39:50.712Z,81.84
2022-12-18T12:45:01.729Z,81.80
2022-12-18T12:50:21.851Z,82.53
2022-12-18T12:55:31.917Z,82.53
2022-12-18T13:00:52.427Z,82.89
2022-12-18T13:06:05.813Z,83.58
2022-12-18T13:17:32.301Z,84.10
2022-12-18T13:22:44.780Z,84.08
2022-12-18T13:28:12.887Z,84.10
2022-12-18T13:34:24.001Z,84.34
2022-12-18T13:39:43.335Z,84.20
2022-12-18T15:05:02.438Z,84.37
2022-12-18T15:10:16.894Z,84.40
2022-12-18T15:15:51.973Z,84.42
2022-12-18T15:21:11.238Z,84.69
2022-12-18T15:26:26.067Z,84.71
2022-12-18T15:31:39.132Z,84.50
2022-12-18T15:36:49.474Z,84.13
2022-12-18T15:42:14.400Z,83.78
2022-12-18T15:47:23.922Z,84.49
2022-12-18T15:52:38.708Z,84.67
2022-12-18T15:57:47.981Z,84.16
2022-12-18T16:02:57.226Z,84.33
2022-12-18T16:08:09.214Z,84.73
2022-12-18T16:13:25.233Z,85.04
2022-12-18T16:18:34.450Z,85.18
2022-12-18T16:23:47.848Z,85.18
2022-12-18T16:28:57.052Z,85.14
2022-12-18T16:34:28.567Z,85.02
2022-12-18T16:39:40.229Z,85.13
2022-12-18T16:44:49.684Z,85.20
2022-12-18T16:50:00.779Z,85.60
2022-12-18T16:55:16.291Z,85.20
2022-12-18T17:00:29.529Z,85.37
2022-12-18T17:05:42.407Z,85.46
2022-12-18T17:10:52.867Z,85.40
2022-12-18T17:16:07.728Z,85.70
2022-12-18T17:21:18.242Z,85.69
2022-12-18T17:26:43.704Z,85.63
2022-12-18T17:31:54.624Z,85.94
2022-12-18T17:37:07.388Z,85.62
2022-12-18T17:42:20.445Z,86.00
2022-12-18T17:47:31.513Z,85.72
2022-12-18T17:52:41.393Z,86.34
2022-12-18T17:57:53.071Z,86.01
2022-12-18T18:03:05.439Z,84.92
2022-12-18T18:08:15.329Z,84.99
2022-12-18T18:13:47.174Z,84.84
2022-12-18T18:18:56.592Z,85.07
2022-12-18T18:24:06.103Z,84.10
2022-12-18T18:29:19.986Z,84.44
2022-12-18T18:34:31.535Z,84.46
2022-12-18T18:39:44.476Z,84.80
2022-12-18T18:44:56.019Z,84.33
2022-12-18T18:50:07.276Z,84.46
2022-12-18T18:55:25.768Z,84.29
2022-12-18T19:00:37.402Z,84.57
2022-12-18T19:05:47.688Z,84.22
2022-12-18T19:10:58.183Z,84.88
2022-12-18T19:16:11.587Z,84.08
2022-12-18T19:21:22.043Z,84.13
2022-12-18T19:26:31.376Z,83.45
2022-12-18T19:31:42.303Z,83.56
2022-12-18T19:36:53.926Z,83.29
2022-12-18T19:42:07.721Z,83.71
2022-12-18T19:47:18.338Z,83.30
2022-12-18T19:52:27.457Z,83.47
2022-12-18T19:57:36.616Z,83.66
2022-12-18T20:02:47.795Z,83.36
2022-12-18T20:07:59.214Z,83.25
2022-12-18T20:13:08.482Z,83.82
2022-12-18T20:18:18.948Z,83.00
2022-12-18T20:23:29.795Z,83.44
2022-12-18T20:28:41.788Z,83.07
2022-12-18T20:34:01.737Z,83.38
2022-12-18T20:39:12.191Z,82.68
2022-12-18T20:44:24.002Z,83.03
2022-12-18T20:49:36.548Z,83.24
2022-12-18T20:54:45.153Z,83.41
2022-12-18T20:59:51.743Z,83.34
2022-12-18T21:05:00.097Z,83.50
2022-12-18T21:10:10.516Z,83.57
2022-12-18T21:15:17.609Z,83.48
2022-12-18T21:20:26.084Z,83.57
2022-12-18T21:25:32.770Z,83.57
2022-12-18T21:30:41.346Z,82.82
2022-12-18T21:35:49.071Z,83.01
2022-12-18T21:40:56.235Z,83.20
2022-12-18T21:46:03.114Z,83.06
2022-12-18T21:51:11.381Z,83.26
2022-12-18T21:56:17.792Z,83.05
2022-12-18T22:01:24.324Z,83.18
2022-12-18T22:06:42.993Z,83.11
2022-12-18T22:11:50.538Z,83.13
2022-12-18T22:16:57.919Z,83.26
2022-12-18T22:22:06.730Z,83.24
2022-12-18T22:27:13.285Z,82.99
2022-12-18T22:32:30.808Z,83.43
2022-12-18T22:37:39.562Z,83.51
2022-12-18T22:42:46.092Z,82.93
2022-12-18T22:47:52.997Z,83.40
2022-12-18T22:53:01.021Z,82.98
2022-12-18T22:58:07.517Z,83.12
2022-12-18T23:03:14.032Z,83.03
2022-12-18T23:08:21.819Z,83.33
2022-12-18T23:13:29.622Z,83.40
2022-12-18T23:18:36.610Z,83.34
2022-12-18T23:23:45.258Z,83.52
2022-12-18T23:28:53.370Z,83.58
2022-12-18T23:34:01.675Z,83.33
2022-12-18T23:39:10.300Z,83.79
2022-12-18T23:44:16.482Z,83.67
2022-12-18T23:49:22.857Z,83.33
2022-12-18T23:54:33.440Z,83.65
2022-12-18T23:59:40.364Z,83.90
